Time;durP1;ratioP1;P1;durP2;ratioP2;P2;SDS_P1;SDS_P2;PMS_P1;PMS_P2;Temp;Humidity;BMP_temperature;BMP_pressure;BME280_temperature;BME280_humidity;BME280_pressure;Samples;Min_cycle;Max_cycle;Signal;HPM_P1;HPM_P2
2020/12/07 00:01:28;;;;;;;;;;;22.40;43.00;;;;;;1598355;73;735;-57
2020/12/07 00:03:30;;;;;;;;;;;22.40;42.80;;;;;;1598477;73;696;-56
2020/12/07 00:05:32;;;;;;;;;;;22.40;42.80;;;;;;1597765;73;1949;-54
2020/12/07 00:07:34;;;;;;;;;;;22.40;42.80;;;;;;1587594;73;677;-56
2020/12/07 00:09:36;;;;;;;;;;;22.40;42.80;;;;;;1589984;73;1124;-56
2020/12/07 00:11:38;;;;;;;;;;;22.50;42.90;;;;;;1598329;73;723;-56
2020/12/07 00:13:40;;;;;;;;;;;22.50;42.80;;;;;;1598372;73;1017;-56
2020/12/07 00:15:42;;;;;;;;;;;22.50;42.80;;;;;;1598419;73;740;-58
2020/12/07 00:17:44;;;;;;;;;;;22.50;42.80;;;;;;1588022;73;774;-57
2020/12/07 00:19:45;;;;;;;;;;;22.50;42.80;;;;;;1598376;73;1128;-58
2020/12/07 00:21:47;;;;;;;;;;;22.50;42.60;;;;;;1598349;74;709;-54
2020/12/07 00:23:49;;;;;;;;;;;22.50;42.70;;;;;;1598329;73;917;-58
2020/12/07 00:25:51;;;;;;;;;;;22.50;42.70;;;;;;1598056;73;1935;-53
2020/12/07 00:27:53;;;;;;;;;;;22.50;42.70;;;;;;1571178;74;743;-56
2020/12/07 00:29:55;;;;;;;;;;;22.50;42.70;;;;;;1588640;73;1144;-52
2020/12/07 00:31:57;;;;;;;;;;;22.50;42.80;;;;;;1598299;73;784;-54
2020/12/07 00:33:59;;;;;;;;;;;22.50;42.70;;;;;;1598230;73;752;-55
2020/12/07 00:36:01;;;;;;;;;;;22.50;42.70;;;;;;1582662;73;832;-54
2020/12/07 00:38:03;;;;;;;;;;;22.50;42.70;;;;;;1598139;73;796;-54
2020/12/07 00:40:05;;;;;;;;;;;22.50;42.70;;;;;;1598235;73;1132;-57
2020/12/07 00:42:09;;;;;;;;;;;22.50;42.80;;;;;;1598283;73;713;-58
2020/12/07 00:44:10;;;;;;;;;;;22.50;42.70;;;;;;1582565;73;1702;-57
2020/12/07 00:46:12;;;;;;;;;;;22.50;42.70;;;;;;1594235;73;1966;-58
2020/12/07 00:48:14;;;;;;;;;;;22.50;42.80;;;;;;1604774;73;533;-58
2020/12/07 00:50:16;;;;;;;;;;;22.50;42.70;;;;;;1616752;73;1087;-57
2020/12/07 00:52:18;;;;;;;;;;;22.50;42.80;;;;;;1598570;73;790;-57
2020/12/07 00:54:22;;;;;;;;;;;22.50;42.80;;;;;;1595721;73;726;-58
2020/12/07 00:56:24;;;;;;;;;;;22.40;42.60;;;;;;1598454;73;824;-58
2020/12/07 00:58:25;;;;;;;;;;;22.50;42.80;;;;;;1598322;73;733;-56
2020/12/07 01:00:27;;;;;;;;;;;22.40;42.70;;;;;;1594092;73;1176;-55
2020/12/07 01:02:31;;;;;;;;;;;22.50;42.80;;;;;;1598469;73;717;-58
2020/12/07 01:04:33;;;;;;;;;;;22.50;42.80;;;;;;1594789;73;761;-57
2020/12/07 01:06:34;;;;;;;;;;;22.40;42.70;;;;;;1598495;73;1976;-57
2020/12/07 01:08:36;;;;;;;;;;;22.50;42.80;;;;;;1598553;74;775;-57
2020/12/07 01:10:38;;;;;;;;;;;22.50;42.90;;;;;;1598670;74;1108;-57
2020/12/07 01:12:40;;;;;;;;;;;22.50;42.80;;;;;;1597981;73;772;-54
2020/12/07 01:14:42;;;;;;;;;;;22.50;42.80;;;;;;1598547;73;776;-57
2020/12/07 01:16:44;;;;;;;;;;;22.40;42.80;;;;;;1598216;73;718;-55
2020/12/07 01:18:46;;;;;;;;;;;22.50;42.90;;;;;;1597816;73;756;-55
2020/12/07 01:20:48;;;;;;;;;;;22.50;42.90;;;;;;1598459;73;1171;-54
2020/12/07 01:22:50;;;;;;;;;;;22.50;42.80;;;;;;1592881;73;818;-57
2020/12/07 01:24:51;;;;;;;;;;;22.50;42.80;;;;;;1598682;73;727;-60
2020/12/07 01:26:53;;;;;;;;;;;22.50;42.80;;;;;;1603317;73;1933;-60
2020/12/07 01:28:55;;;;;;;;;;;22.50;42.80;;;;;;1595911;73;728;-59
2020/12/07 01:30:57;;;;;;;;;;;22.50;43.10;;;;;;1598019;73;1144;-55
2020/12/07 01:32:59;;;;;;;;;;;22.50;42.90;;;;;;1597664;73;782;-58
2020/12/07 01:35:01;;;;;;;;;;;22.40;42.90;;;;;;1598478;73;744;-58
2020/12/07 01:37:03;;;;;;;;;;;22.50;43.00;;;;;;1593865;73;676;-57
2020/12/07 01:39:04;;;;;;;;;;;22.50;43.00;;;;;;1598352;73;698;-57
2020/12/07 01:41:06;;;;;;;;;;;22.40;42.80;;;;;;1595347;73;1141;-55
2020/12/07 01:43:08;;;;;;;;;;;22.50;42.90;;;;;;1598552;73;713;-55
2020/12/07 01:45:10;;;;;;;;;;;22.50;42.90;;;;;;1598513;73;768;-60
2020/12/07 01:47:17;;;;;;;;;;;22.50;42.90;;;;;;1598406;73;1928;-60
2020/12/07 01:49:18;;;;;;;;;;;22.50;43.00;;;;;;1593526;73;1517;-56
2020/12/07 01:51:21;;;;;;;;;;;22.50;42.90;;;;;;1594899;73;1111;-55
2020/12/07 01:53:23;;;;;;;;;;;22.50;43.00;;;;;;1598519;73;804;-56
2020/12/07 01:55:24;;;;;;;;;;;22.50;42.90;;;;;;1598597;73;798;-54
2020/12/07 01:57:26;;;;;;;;;;;22.50;42.80;;;;;;1598427;73;730;-58
2020/12/07 01:59:28;;;;;;;;;;;22.50;43.00;;;;;;1594602;73;1109;-57
2020/12/07 02:01:30;;;;;;;;;;;22.50;43.00;;;;;;1598541;73;718;-57
2020/12/07 02:03:32;;;;;;;;;;;22.50;43.00;;;;;;1598591;73;784;-57
2020/12/07 02:05:34;;;;;;;;;;;22.50;43.30;;;;;;1598534;73;765;-59
2020/12/07 02:07:36;;;;;;;;;;;22.50;43.00;;;;;;1596754;73;1917;-57
2020/12/07 02:09:38;;;;;;;;;;;22.50;43.10;;;;;;1596009;73;1147;-57
2020/12/07 02:11:40;;;;;;;;;;;22.50;43.10;;;;;;1598548;73;721;-57
2020/12/07 02:13:41;;;;;;;;;;;22.50;43.10;;;;;;1598574;73;631;-56
2020/12/07 02:15:43;;;;;;;;;;;22.50;43.20;;;;;;1598586;73;789;-57
2020/12/07 02:17:45;;;;;;;;;;;22.40;43.10;;;;;;1587676;73;742;-56
2020/12/07 02:19:50;;;;;;;;;;;22.40;42.90;;;;;;1589858;73;1188;-55
2020/12/07 02:21:52;;;;;;;;;;;22.50;43.10;;;;;;1598525;73;793;-59
2020/12/07 02:23:54;;;;;;;;;;;22.40;42.90;;;;;;1598593;73;695;-59
2020/12/07 02:25:56;;;;;;;;;;;22.50;43.00;;;;;;1593735;73;705;-58
2020/12/07 02:27:58;;;;;;;;;;;22.50;43.00;;;;;;1575625;73;1944;-59
2020/12/07 02:30:00;;;;;;;;;;;22.50;42.90;;;;;;1585556;73;1128;-58
2020/12/07 02:32:17;;;;;;;;;;;22.50;43.00;;;;;;1594260;73;785;-57
2020/12/07 02:34:19;;;;;;;;;;;22.50;43.10;;;;;;1598528;73;777;-58
2020/12/07 02:36:21;;;;;;;;;;;22.40;43.10;;;;;;1596903;73;723;-57
2020/12/07 02:38:23;;;;;;;;;;;22.40;43.10;;;;;;1598428;73;772;-57
2020/12/07 02:40:24;;;;;;;;;;;22.40;43.00;;;;;;1598549;73;1085;-58
2020/12/07 02:42:26;;;;;;;;;;;22.40;43.00;;;;;;1598527;73;692;-57
2020/12/07 02:44:28;;;;;;;;;;;22.40;42.90;;;;;;1598487;73;736;-57
2020/12/07 02:46:30;;;;;;;;;;;22.40;43.00;;;;;;1583267;74;1944;-56
2020/12/07 02:48:32;;;;;;;;;;;22.50;43.00;;;;;;1598431;73;804;-57
2020/12/07 02:50:34;;;;;;;;;;;22.50;43.10;;;;;;1598470;73;1069;-55
2020/12/07 02:52:36;;;;;;;;;;;22.50;42.90;;;;;;1598501;74;799;-54
2020/12/07 02:54:37;;;;;;;;;;;22.50;43.00;;;;;;1598237;73;730;-56
2020/12/07 02:56:39;;;;;;;;;;;22.50;42.80;;;;;;1575854;73;799;-58
2020/12/07 02:58:41;;;;;;;;;;;22.50;42.80;;;;;;1598375;73;688;-59
2020/12/07 03:00:43;;;;;;;;;;;22.50;42.80;;;;;;1598505;73;1130;-57
2020/12/07 03:02:45;;;;;;;;;;;22.50;42.80;;;;;;1617636;73;726;-57
2020/12/07 03:04:47;;;;;;;;;;;22.50;42.70;;;;;;1581778;73;700;-58
2020/12/07 03:06:49;;;;;;;;;;;22.50;42.70;;;;;;1598300;73;1923;-54
2020/12/07 03:08:50;;;;;;;;;;;22.50;42.70;;;;;;1598033;73;766;-54
2020/12/07 03:10:52;;;;;;;;;;;22.50;43.00;;;;;;1597289;73;1076;-56
2020/12/07 03:12:54;;;;;;;;;;;22.40;42.60;;;;;;1597502;74;698;-54
2020/12/07 03:14:56;;;;;;;;;;;22.50;42.70;;;;;;1578620;73;733;-53
2020/12/07 03:16:58;;;;;;;;;;;22.50;42.70;;;;;;1597620;73;779;-57
2020/12/07 03:19:01;;;;;;;;;;;22.50;42.60;;;;;;1598321;73;1084;-57
2020/12/07 03:21:03;;;;;;;;;;;22.50;42.70;;;;;;1598370;73;1151;-56
2020/12/07 03:23:05;;;;;;;;;;;22.50;42.70;;;;;;1598156;73;766;-55
2020/12/07 03:25:06;;;;;;;;;;;22.50;42.70;;;;;;1572247;73;806;-54
2020/12/07 03:27:08;;;;;;;;;;;22.50;42.70;;;;;;1596504;73;1940;-54
2020/12/07 03:29:10;;;;;;;;;;;22.50;42.80;;;;;;1598437;73;779;-57
2020/12/07 03:31:12;;;;;;;;;;;22.50;42.80;;;;;;1598600;73;1100;-57
2020/12/07 03:33:14;;;;;;;;;;;22.50;42.80;;;;;;1598655;73;770;-58
2020/12/07 03:35:16;;;;;;;;;;;22.50;42.80;;;;;;1598620;73;774;-56
2020/12/07 03:37:18;;;;;;;;;;;22.50;42.80;;;;;;1576783;73;702;-52
2020/12/07 03:39:19;;;;;;;;;;;22.50;42.90;;;;;;1598617;73;754;-56
2020/12/07 03:41:21;;;;;;;;;;;22.50;43.00;;;;;;1598697;73;1126;-55
2020/12/07 03:43:23;;;;;;;;;;;22.40;42.80;;;;;;1583601;74;778;-56
2020/12/07 03:45:25;;;;;;;;;;;22.50;42.90;;;;;;1593711;73;737;-53
2020/12/07 03:47:27;;;;;;;;;;;22.40;42.90;;;;;;1598470;73;1933;-53
2020/12/07 03:49:29;;;;;;;;;;;22.50;43.40;;;;;;1598655;73;1152;-55
2020/12/07 03:51:31;;;;;;;;;;;22.50;43.30;;;;;;1594928;74;757;-55
2020/12/07 03:53:34;;;;;;;;;;;22.40;43.20;;;;;;1588220;73;691;-54
2020/12/07 03:55:35;;;;;;;;;;;22.50;43.60;;;;;;1598582;73;791;-57
2020/12/07 03:57:37;;;;;;;;;;;22.50;43.40;;;;;;1598400;73;782;-55
2020/12/07 03:59:39;;;;;;;;;;;22.50;43.50;;;;;;1598553;74;1157;-53
2020/12/07 04:01:41;;;;;;;;;;;22.50;43.50;;;;;;1589688;73;776;-58
2020/12/07 04:03:45;;;;;;;;;;;22.50;43.70;;;;;;1586796;73;794;-59
2020/12/07 04:05:50;;;;;;;;;;;22.50;43.80;;;;;;1598488;73;1148;-57
2020/12/07 04:07:50;;;;;;;;;;;22.50;44.10;;;;;;1598035;73;1937;-57
2020/12/07 04:09:52;;;;;;;;;;;22.40;44.00;;;;;;1592073;73;1151;-57
2020/12/07 04:11:54;;;;;;;;;;;22.50;44.20;;;;;;1582533;73;786;-54
2020/12/07 04:13:55;;;;;;;;;;;22.40;44.20;;;;;;1598648;73;737;-53
2020/12/07 04:15:57;;;;;;;;;;;22.50;44.20;;;;;;1598611;73;725;-53
2020/12/07 04:17:59;;;;;;;;;;;22.40;44.20;;;;;;1588952;73;775;-58
2020/12/07 04:20:01;;;;;;;;;;;22.40;44.30;;;;;;1595210;73;1261;-57
2020/12/07 04:22:03;;;;;;;;;;;22.40;44.30;;;;;;1581800;73;802;-57
2020/12/07 04:24:05;;;;;;;;;;;22.30;44.40;;;;;;1598627;73;761;-58
2020/12/07 04:26:07;;;;;;;;;;;22.30;44.40;;;;;;1598630;73;782;-56
2020/12/07 04:28:09;;;;;;;;;;;22.30;44.90;;;;;;1594421;73;1958;-57
2020/12/07 04:30:11;;;;;;;;;;;22.30;45.20;;;;;;1598594;73;1065;-59
2020/12/07 04:32:14;;;;;;;;;;;22.30;45.20;;;;;;1598684;73;780;-58
2020/12/07 04:34:16;;;;;;;;;;;22.20;45.20;;;;;;1598587;73;778;-55
2020/12/07 04:36:17;;;;;;;;;;;22.30;45.40;;;;;;1586504;73;827;-57
2020/12/07 04:38:19;;;;;;;;;;;22.30;45.70;;;;;;1593234;73;788;-57
2020/12/07 04:40:21;;;;;;;;;;;22.30;45.70;;;;;;1576921;73;1157;-57
2020/12/07 04:42:24;;;;;;;;;;;22.30;45.90;;;;;;1567884;75;714;-58
2020/12/07 04:44:26;;;;;;;;;;;22.30;45.80;;;;;;1540329;76;698;-59
2020/12/07 04:46:28;;;;;;;;;;;22.30;46.10;;;;;;1541525;76;723;-57
2020/12/07 04:48:30;;;;;;;;;;;22.30;46.30;;;;;;1540474;76;1945;-56
2020/12/07 04:50:32;;;;;;;;;;;22.30;46.20;;;;;;1565143;74;1150;-58
2020/12/07 04:52:34;;;;;;;;;;;22.30;46.40;;;;;;1570545;74;711;-54
2020/12/07 04:54:39;;;;;;;;;;;22.30;46.30;;;;;;1556500;76;775;-54
2020/12/07 04:56:41;;;;;;;;;;;22.30;46.50;;;;;;1554820;76;937;-57
2020/12/07 04:58:43;;;;;;;;;;;22.30;46.40;;;;;;1547484;75;692;-57
2020/12/07 05:00:45;;;;;;;;;;;22.30;46.50;;;;;;1539969;76;1150;-56
2020/12/07 05:02:47;;;;;;;;;;;22.20;46.50;;;;;;1587836;73;745;-57
2020/12/07 05:04:49;;;;;;;;;;;22.30;46.80;;;;;;1598214;73;775;-56
2020/12/07 05:07:03;;;;;;;;;;;22.30;46.90;;;;;;1598392;73;771;-55
2020/12/07 05:09:05;;;;;;;;;;;22.20;46.60;;;;;;1595201;73;1934;-54
2020/12/07 05:11:07;;;;;;;;;;;22.30;46.80;;;;;;1598544;73;1127;-55
2020/12/07 05:13:19;;;;;;;;;;;22.30;46.80;;;;;;1598618;73;846;-56
2020/12/07 05:15:15;;;;;;;;;;;22.30;46.80;;;;;;1587881;73;1582;-55
2020/12/07 05:17:16;;;;;;;;;;;22.30;46.80;;;;;;1575540;73;790;-57
2020/12/07 05:19:21;;;;;;;;;;;22.30;46.80;;;;;;1595423;73;702;-59
2020/12/07 05:21:23;;;;;;;;;;;22.30;46.80;;;;;;1598507;74;806;-57
2020/12/07 05:23:25;;;;;;;;;;;22.30;47.10;;;;;;1598579;73;713;-57
2020/12/07 05:25:27;;;;;;;;;;;22.30;46.60;;;;;;1598556;73;733;-54
2020/12/07 05:27:29;;;;;;;;;;;22.40;46.60;;;;;;1589074;73;1910;-55
2020/12/07 05:29:37;;;;;;;;;;;22.40;46.60;;;;;;1595607;73;1147;-55
2020/12/07 05:31:35;;;;;;;;;;;22.40;46.90;;;;;;1598335;73;1429;-57
2020/12/07 05:33:36;;;;;;;;;;;22.40;46.80;;;;;;1588183;73;787;-57
2020/12/07 05:35:38;;;;;;;;;;;22.40;46.70;;;;;;1591082;73;835;-58
2020/12/07 05:37:40;;;;;;;;;;;22.40;46.70;;;;;;1598431;73;696;-58
2020/12/07 05:39:42;;;;;;;;;;;22.40;46.80;;;;;;1598573;74;1147;-57
2020/12/07 05:41:44;;;;;;;;;;;22.40;46.90;;;;;;1598528;73;777;-59
2020/12/07 05:43:46;;;;;;;;;;;22.40;47.10;;;;;;1598490;73;827;-60
2020/12/07 05:45:48;;;;;;;;;;;22.30;47.10;;;;;;1581965;73;674;-57
2020/12/07 05:47:50;;;;;;;;;;;22.30;47.20;;;;;;1598417;73;1946;-56
2020/12/07 05:49:52;;;;;;;;;;;22.30;47.00;;;;;;1598544;73;1124;-56
2020/12/07 05:51:58;;;;;;;;;;;22.40;46.70;;;;;;1594734;73;835;-55
2020/12/07 05:54:00;;;;;;;;;;;22.40;46.70;;;;;;1595044;73;1764;-58
2020/12/07 05:56:02;;;;;;;;;;;22.40;46.50;;;;;;1598582;73;757;-57
2020/12/07 05:58:09;;;;;;;;;;;22.50;46.60;;;;;;1598339;73;786;-56
2020/12/07 06:00:10;;;;;;;;;;;22.50;46.40;;;;;;1598494;73;1112;-57
2020/12/07 06:02:12;;;;;;;;;;;22.50;46.20;;;;;;1591641;73;731;-59
2020/12/07 06:04:14;;;;;;;;;;;22.50;46.10;;;;;;1575621;73;765;-56
2020/12/07 06:06:16;;;;;;;;;;;22.60;46.00;;;;;;1598541;73;755;-55
2020/12/07 06:08:22;;;;;;;;;;;22.70;46.10;;;;;;1598365;73;1945;-55
2020/12/07 06:10:24;;;;;;;;;;;22.50;45.90;;;;;;1597784;73;1123;-54
2020/12/07 06:12:31;;;;;;;;;;;22.50;45.90;;;;;;1592000;73;733;-57
2020/12/07 06:14:33;;;;;;;;;;;22.50;46.00;;;;;;1592868;73;734;-57
2020/12/07 06:16:37;;;;;;;;;;;22.50;46.00;;;;;;1581591;73;658;-57
2020/12/07 06:18:42;;;;;;;;;;;22.50;46.20;;;;;;1598548;73;782;-56
2020/12/07 06:20:44;;;;;;;;;;;22.40;45.90;;;;;;1598593;73;1121;-55
2020/12/07 06:22:46;;;;;;;;;;;22.40;46.10;;;;;;1585051;73;761;-56
2020/12/07 06:24:48;;;;;;;;;;;22.50;46.00;;;;;;1568097;74;1167;-57
2020/12/07 06:26:52;;;;;;;;;;;22.50;45.80;;;;;;1540348;76;713;-54
2020/12/07 06:28:54;;;;;;;;;;;22.50;45.80;;;;;;1567821;76;1932;-56
2020/12/07 06:30:55;;;;;;;;;;;22.60;45.80;;;;;;1541218;76;1099;-58
2020/12/07 06:32:57;;;;;;;;;;;22.60;46.00;;;;;;1541379;77;1195;-57
2020/12/07 06:34:59;;;;;;;;;;;22.50;45.70;;;;;;1598424;73;739;-56
2020/12/07 06:37:01;;;;;;;;;;;22.60;45.50;;;;;;1598619;73;739;-54
2020/12/07 06:39:05;;;;;;;;;;;22.60;45.40;;;;;;1598519;73;793;-56
2020/12/07 06:41:06;;;;;;;;;;;22.40;45.40;;;;;;1585967;73;1142;-54
2020/12/07 06:43:16;;;;;;;;;;;22.40;45.40;;;;;;1598719;73;793;-54
2020/12/07 06:45:20;;;;;;;;;;;22.40;45.30;;;;;;1597999;73;1033;-59
2020/12/07 06:47:27;;;;;;;;;;;22.40;45.40;;;;;;1596513;73;1719;-58
2020/12/07 06:49:26;;;;;;;;;;;22.40;45.40;;;;;;1581462;73;1914;-58
2020/12/07 06:51:32;;;;;;;;;;;22.30;45.60;;;;;;1591537;73;773;-57
2020/12/07 06:55:37;;;;;;;;;;;22.20;45.80;;;;;;1597366;73;816;-57
2020/12/07 06:57:41;;;;;;;;;;;22.20;45.70;;;;;;1568174;74;748;-56
2020/12/07 06:59:45;;;;;;;;;;;22.20;45.70;;;;;;1540417;76;1123;-57
2020/12/07 07:01:50;;;;;;;;;;;22.20;45.70;;;;;;1563581;75;1756;-55
2020/12/07 07:03:55;;;;;;;;;;;22.20;45.80;;;;;;1549322;76;714;-59
2020/12/07 07:05:56;;;;;;;;;;;22.20;45.80;;;;;;1546134;74;714;-59
2020/12/07 07:07:58;;;;;;;;;;;22.10;45.70;;;;;;1568156;74;1950;-58
2020/12/07 07:10:00;;;;;;;;;;;22.10;44.20;;;;;;1561074;74;1146;-59
2020/12/07 07:12:02;;;;;;;;;;;22.20;44.80;;;;;;1568270;75;737;-57
2020/12/07 07:14:04;;;;;;;;;;;22.10;44.60;;;;;;1568214;74;770;-57
2020/12/07 07:16:06;;;;;;;;;;;22.10;44.70;;;;;;1568207;74;722;-59
2020/12/07 07:18:08;;;;;;;;;;;22.20;44.70;;;;;;1560609;74;671;-58
2020/12/07 07:20:10;;;;;;;;;;;22.20;44.40;;;;;;1557188;76;1178;-58
2020/12/07 07:22:12;;;;;;;;;;;22.30;44.60;;;;;;1571317;75;730;-59
2020/12/07 07:24:15;;;;;;;;;;;22.20;44.40;;;;;;1571308;76;844;-57
2020/12/07 07:26:27;;;;;;;;;;;22.20;44.40;;;;;;1545306;75;718;-57
2020/12/07 07:28:23;;;;;;;;;;;22.30;44.40;;;;;;1554536;76;1890;-56
2020/12/07 07:30:25;;;;;;;;;;;22.30;44.40;;;;;;1571362;76;1118;-59
2020/12/07 07:32:27;;;;;;;;;;;22.30;44.30;;;;;;1571370;76;784;-58
2020/12/07 07:34:29;;;;;;;;;;;22.20;44.30;;;;;;1571309;76;800;-56
2020/12/07 07:36:31;;;;;;;;;;;22.10;44.60;;;;;;1556079;76;708;-56
2020/12/07 07:38:37;;;;;;;;;;;22.10;44.90;;;;;;1560523;76;759;-57
2020/12/07 07:40:36;;;;;;;;;;;22.20;44.30;;;;;;1566721;74;1255;-57
2020/12/07 07:42:51;;;;;;;;;;;22.30;43.60;;;;;;1571160;74;676;-57
2020/12/07 07:44:53;;;;;;;;;;;22.30;42.30;;;;;;1570354;76;815;-59
2020/12/07 07:46:55;;;;;;;;;;;22.30;39.40;;;;;;1562108;75;773;-56
2020/12/07 07:49:30;;;;;;;;;;;22.30;36.60;;;;;;1540653;76;1952;-56
2020/12/07 07:51:35;;;;;;;;;;;22.20;36.70;;;;;;1560335;75;1425;-58
2020/12/07 08:03:15;;;;;;;;;;;22.00;36.30;;;;;;1547221;75;864;-57
2020/12/07 08:12:06;;;;;;;;;;;21.90;35.90;;;;;;1536228;76;1647;-58
2020/12/07 08:15:48;;;;;;;;;;;22.00;35.70;;;;;;1546471;76;720;-55
2020/12/07 08:17:50;;;;;;;;;;;21.80;35.50;;;;;;1532545;76;706;-58
2020/12/07 08:19:54;;;;;;;;;;;21.80;35.20;;;;;;1550773;75;1143;-57
2020/12/07 08:21:56;;;;;;;;;;;21.90;35.10;;;;;;1542197;75;1868;-60
2020/12/07 08:24:04;;;;;;;;;;;21.80;34.80;;;;;;1532076;75;738;-58
2020/12/07 08:26:01;;;;;;;;;;;21.80;34.70;;;;;;1526675;76;1568;-55
2020/12/07 08:28:05;;;;;;;;;;;21.80;34.50;;;;;;1550672;75;696;-58
2020/12/07 08:30:07;;;;;;;;;;;21.70;34.20;;;;;;1544663;75;1932;-55
2020/12/07 08:32:22;;;;;;;;;;;21.70;34.40;;;;;;1537152;76;770;-53
2020/12/07 08:34:25;;;;;;;;;;;21.60;34.80;;;;;;1540840;77;816;-57
2020/12/07 08:36:29;;;;;;;;;;;21.50;35.10;;;;;;1549377;76;1886;-56
2020/12/07 08:38:34;;;;;;;;;;;21.40;34.90;;;;;;1541023;76;987;-56
2020/12/07 08:40:36;;;;;;;;;;;21.40;35.80;;;;;;1545358;75;1136;-56
2020/12/07 08:42:38;;;;;;;;;;;21.40;35.30;;;;;;1545839;75;722;-57
2020/12/07 08:44:40;;;;;;;;;;;21.50;36.10;;;;;;1537294;75;746;-58
2020/12/07 08:46:42;;;;;;;;;;;21.50;36.00;;;;;;1549826;75;728;-57
2020/12/07 08:48:44;;;;;;;;;;;21.50;36.40;;;;;;1549438;75;1927;-57
2020/12/07 08:50:46;;;;;;;;;;;21.40;36.20;;;;;;1543954;75;1137;-58
2020/12/07 08:52:48;;;;;;;;;;;21.40;36.40;;;;;;1535500;76;746;-56
2020/12/07 08:54:50;;;;;;;;;;;21.50;36.70;;;;;;1540098;76;684;-58
2020/12/07 08:56:52;;;;;;;;;;;21.40;36.70;;;;;;1547509;75;656;-55
2020/12/07 08:58:53;;;;;;;;;;;21.40;36.80;;;;;;1541693;75;873;-55
2020/12/07 09:00:55;;;;;;;;;;;21.50;36.90;;;;;;1544287;76;1102;-54
2020/12/07 09:02:57;;;;;;;;;;;21.40;37.10;;;;;;1536643;77;742;-57
2020/12/07 09:04:59;;;;;;;;;;;21.50;37.30;;;;;;1534817;76;701;-57
2020/12/07 09:07:03;;;;;;;;;;;21.50;37.90;;;;;;1546157;77;735;-55
2020/12/07 09:09:05;;;;;;;;;;;21.60;38.40;;;;;;1542706;76;1931;-56
2020/12/07 09:11:06;;;;;;;;;;;21.40;38.80;;;;;;1536617;76;1104;-56
2020/12/07 09:13:08;;;;;;;;;;;21.50;39.40;;;;;;1544547;76;820;-57
2020/12/07 09:15:10;;;;;;;;;;;21.40;39.50;;;;;;1543853;76;940;-58
2020/12/07 09:17:12;;;;;;;;;;;21.40;39.70;;;;;;1538690;76;778;-56
2020/12/07 09:19:14;;;;;;;;;;;21.40;39.20;;;;;;1541020;75;729;-54
2020/12/07 09:21:16;;;;;;;;;;;21.50;39.10;;;;;;1542265;75;1146;-54
2020/12/07 09:23:18;;;;;;;;;;;21.40;38.90;;;;;;1548296;75;723;-57
2020/12/07 09:25:20;;;;;;;;;;;21.50;38.90;;;;;;1548175;75;857;-56
2020/12/07 09:27:21;;;;;;;;;;;21.60;39.10;;;;;;1546220;75;805;-58
2020/12/07 09:29:25;;;;;;;;;;;21.50;38.70;;;;;;1547132;75;1948;-57
2020/12/07 09:31:27;;;;;;;;;;;21.60;38.60;;;;;;1533817;75;2098;-57
2020/12/07 09:33:29;;;;;;;;;;;21.60;38.70;;;;;;1546882;75;775;-58
2020/12/07 09:35:31;;;;;;;;;;;21.60;38.50;;;;;;1549172;75;921;-57
2020/12/07 09:37:33;;;;;;;;;;;21.60;38.60;;;;;;1545285;76;682;-54
2020/12/07 09:39:35;;;;;;;;;;;21.70;38.60;;;;;;1538465;76;1106;-56
2020/12/07 09:41:37;;;;;;;;;;;21.70;38.30;;;;;;1548669;77;736;-56
2020/12/07 09:43:39;;;;;;;;;;;21.80;38.50;;;;;;1543986;76;834;-56
2020/12/07 09:45:41;;;;;;;;;;;21.90;38.50;;;;;;1545403;77;708;-55
2020/12/07 09:47:42;;;;;;;;;;;21.80;38.30;;;;;;1543200;76;760;-54
2020/12/07 09:49:44;;;;;;;;;;;21.80;38.30;;;;;;1538491;76;1934;-56
2020/12/07 09:51:46;;;;;;;;;;;21.80;38.10;;;;;;1541826;76;800;-57
2020/12/07 09:53:48;;;;;;;;;;;21.80;38.30;;;;;;1536424;76;801;-58
2020/12/07 09:55:50;;;;;;;;;;;21.90;38.30;;;;;;1546461;77;753;-57
2020/12/07 09:57:52;;;;;;;;;;;21.90;38.50;;;;;;1540843;76;708;-57
2020/12/07 09:59:54;;;;;;;;;;;21.90;38.40;;;;;;1533637;76;1188;-55
2020/12/07 10:01:56;;;;;;;;;;;21.90;38.30;;;;;;1549493;76;728;-57
2020/12/07 10:03:58;;;;;;;;;;;21.80;38.10;;;;;;1545964;76;779;-57
2020/12/07 10:06:00;;;;;;;;;;;21.90;38.10;;;;;;1543136;76;769;-55
2020/12/07 10:08:02;;;;;;;;;;;22.00;38.40;;;;;;1540284;76;744;-56
2020/12/07 10:10:05;;;;;;;;;;;21.90;38.10;;;;;;1543698;76;1922;-56
2020/12/07 10:12:07;;;;;;;;;;;21.90;38.10;;;;;;1542663;76;688;-56
2020/12/07 10:14:09;;;;;;;;;;;22.00;38.10;;;;;;1539010;76;769;-54
2020/12/07 10:16:11;;;;;;;;;;;21.90;38.10;;;;;;1541269;77;780;-54
2020/12/07 10:18:13;;;;;;;;;;;21.90;38.00;;;;;;1548608;75;1037;-58
2020/12/07 10:20:15;;;;;;;;;;;21.90;37.80;;;;;;1549537;77;1175;-58
2020/12/07 10:22:17;;;;;;;;;;;21.90;38.00;;;;;;1535610;76;733;-57
2020/12/07 10:24:18;;;;;;;;;;;22.00;37.90;;;;;;1543286;77;738;-56
2020/12/07 10:26:24;;;;;;;;;;;22.10;37.60;;;;;;1539086;75;812;-57
2020/12/07 10:28:25;;;;;;;;;;;22.00;37.60;;;;;;1545162;75;719;-54
2020/12/07 10:30:27;;;;;;;;;;;22.10;37.50;;;;;;1540711;75;1938;-54
2020/12/07 10:32:29;;;;;;;;;;;22.10;37.40;;;;;;1546580;76;782;-56
2020/12/07 10:34:31;;;;;;;;;;;22.10;37.30;;;;;;1536836;76;831;-59
2020/12/07 10:36:33;;;;;;;;;;;22.10;37.30;;;;;;1545614;77;835;-57
2020/12/07 10:38:35;;;;;;;;;;;22.20;37.20;;;;;;1550623;77;781;-57
2020/12/07 10:40:37;;;;;;;;;;;22.20;37.20;;;;;;1550913;77;1173;-57
2020/12/07 10:42:39;;;;;;;;;;;22.20;37.10;;;;;;1546138;75;801;-57
2020/12/07 10:44:41;;;;;;;;;;;22.20;37.10;;;;;;1531729;76;794;-59
2020/12/07 10:46:42;;;;;;;;;;;22.20;37.00;;;;;;1542845;77;689;-58
2020/12/07 10:48:46;;;;;;;;;;;22.20;37.00;;;;;;1544294;75;672;-56
2020/12/07 10:50:48;;;;;;;;;;;22.30;37.10;;;;;;1549081;75;2050;-53
2020/12/07 10:52:50;;;;;;;;;;;22.30;37.00;;;;;;1546849;75;719;-57
2020/12/07 10:54:52;;;;;;;;;;;22.20;36.90;;;;;;1545790;75;712;-54
2020/12/07 10:56:54;;;;;;;;;;;22.20;37.00;;;;;;1550243;75;787;-54
2020/12/07 10:58:56;;;;;;;;;;;22.30;37.10;;;;;;1550477;75;694;-56
2020/12/07 11:00:58;;;;;;;;;;;22.30;37.10;;;;;;1550583;75;1158;-58
2020/12/07 11:02:59;;;;;;;;;;;22.30;37.00;;;;;;1528995;76;705;-57
2020/12/07 11:05:01;;;;;;;;;;;22.30;36.90;;;;;;1541425;75;802;-56
2020/12/07 11:07:08;;;;;;;;;;;22.20;36.90;;;;;;1538065;75;733;-56
2020/12/07 11:09:09;;;;;;;;;;;22.30;37.10;;;;;;1548724;76;1539;-57
2020/12/07 11:11:10;;;;;;;;;;;22.30;37.10;;;;;;1546198;75;1919;-55
2020/12/07 11:13:35;;;;;;;;;;;22.30;37.10;;;;;;1542329;77;622;-53
2020/12/07 11:15:18;;;;;;;;;;;22.30;37.10;;;;;;1547712;75;1396;-57
2020/12/07 11:17:19;;;;;;;;;;;22.30;37.10;;;;;;1541876;77;1245;-59
2020/12/07 11:19:21;;;;;;;;;;;22.30;37.20;;;;;;1536279;76;795;-56
2020/12/07 11:21:23;;;;;;;;;;;22.30;37.10;;;;;;1529887;75;1179;-57
2020/12/07 11:23:25;;;;;;;;;;;22.40;37.20;;;;;;1546969;75;609;-56
2020/12/07 11:25:27;;;;;;;;;;;22.30;37.30;;;;;;1548032;75;692;-54
2020/12/07 11:27:29;;;;;;;;;;;22.30;37.30;;;;;;1544514;75;796;-54
2020/12/07 11:29:30;;;;;;;;;;;22.30;37.30;;;;;;1541907;76;1937;-57
2020/12/07 11:31:32;;;;;;;;;;;22.30;37.30;;;;;;1534220;76;728;-58
2020/12/07 11:33:34;;;;;;;;;;;22.30;37.40;;;;;;1534450;77;739;-57
2020/12/07 11:35:36;;;;;;;;;;;22.30;37.30;;;;;;1538613;76;739;-58
2020/12/07 11:37:39;;;;;;;;;;;22.30;37.40;;;;;;1550787;75;807;-59
2020/12/07 11:40:09;;;;;;;;;;;22.30;37.40;;;;;;1536969;75;1268;-57
2020/12/07 11:44:14;;;;;;;;;;;22.20;37.30;;;;;;1550840;75;879;-56
2020/12/07 11:46:21;;;;;;;;;;;22.30;37.60;;;;;;1546732;75;772;-56
2020/12/07 11:48:22;;;;;;;;;;;22.30;37.60;;;;;;1541645;75;1639;-59
2020/12/07 11:50:24;;;;;;;;;;;22.30;37.60;;;;;;1545768;75;1951;-59
2020/12/07 11:52:26;;;;;;;;;;;22.20;37.60;;;;;;1542356;75;749;-57
2020/12/07 11:54:28;;;;;;;;;;;22.20;37.60;;;;;;1550862;77;711;-57
2020/12/07 11:56:34;;;;;;;;;;;22.30;37.70;;;;;;1550736;77;710;-57
2020/12/07 11:58:36;;;;;;;;;;;22.20;37.60;;;;;;1547435;75;696;-57
2020/12/07 12:00:38;;;;;;;;;;;22.20;37.60;;;;;;1553903;75;1170;-55
2020/12/07 12:02:40;;;;;;;;;;;22.20;37.60;;;;;;1547935;75;948;-56
2020/12/07 12:04:42;;;;;;;;;;;22.30;37.80;;;;;;1546492;75;763;-57
2020/12/07 12:06:43;;;;;;;;;;;22.30;37.80;;;;;;1537870;75;790;-54
2020/12/07 12:08:45;;;;;;;;;;;22.30;37.80;;;;;;1546949;75;747;-55
2020/12/07 12:10:48;;;;;;;;;;;22.20;37.70;;;;;;1535540;76;1948;-56
2020/12/07 12:12:50;;;;;;;;;;;22.20;37.80;;;;;;1550586;77;729;-54
2020/12/07 12:14:52;;;;;;;;;;;22.20;37.80;;;;;;1542789;76;786;-55
2020/12/07 12:16:53;;;;;;;;;;;22.20;37.80;;;;;;1540576;76;799;-58
2020/12/07 12:18:55;;;;;;;;;;;22.30;37.90;;;;;;1538503;75;829;-58
2020/12/07 12:20:57;;;;;;;;;;;22.20;37.80;;;;;;1541031;75;1165;-55
2020/12/07 12:22:59;;;;;;;;;;;22.20;37.90;;;;;;1543470;77;747;-59
2020/12/07 12:25:01;;;;;;;;;;;22.30;38.00;;;;;;1534553;75;770;-56
2020/12/07 12:27:03;;;;;;;;;;;22.30;38.00;;;;;;1533116;75;778;-58
2020/12/07 12:29:05;;;;;;;;;;;22.30;38.00;;;;;;1541183;75;717;-58
2020/12/07 12:31:10;;;;;;;;;;;22.20;37.90;;;;;;1549373;75;1949;-56
2020/12/07 12:33:12;;;;;;;;;;;22.20;38.00;;;;;;1545359;75;757;-54